Terminal Aerodrome Forecast
Issued by NWS Atlanta, GA

Home | Current Version | Previous Version | Text Only | Print | Product List | Glossary On
Versions: 1 2 3 4 5 6 7 8 9 10 11 12 13 14 15 16 17 18
000
FTUS42 KFFC 180500
TAFMCN
TAF
KMCN 180529Z 1806/1906 30003KT P6SM FEW250
     FM181000 34003KT P6SM SCT015
      TEMPO 1810/1814 6SM BR BKN015
     FM181500 03005KT P6SM SCT030
     FM181700 34006KT P6SM SCT045
     FM190000 35005KT P6SM FEW060=

USA.gov is the U.S. government's official web portal to all federal, state and local government web resources and services.